createdAt,value
2019-02-27T00:01:20.326Z,32.17
2019-02-27T00:03:49.856Z,38.53
2019-02-27T00:06:19.391Z,36.90
2019-02-27T00:08:48.930Z,33.58
2019-02-27T00:11:18.472Z,31.87
2019-02-27T00:13:48.037Z,32.85
2019-02-27T00:16:17.573Z,34.70
2019-02-27T00:18:47.229Z,31.90
2019-02-27T00:21:16.656Z,32.95
2019-02-27T00:23:46.114Z,32.70
2019-02-27T00:26:16.044Z,35.60
2019-02-27T00:28:45.564Z,32.78
2019-02-27T00:31:15.018Z,31.23
2019-02-27T00:33:44.483Z,36.90
2019-02-27T00:36:13.900Z,32.93
2019-02-27T00:38:43.403Z,35.35
2019-02-27T00:41:13.091Z,36.97
2019-02-27T00:43:42.615Z,35.30
2019-02-27T00:46:13.395Z,33.90
2019-02-27T00:48:43.199Z,36.38
2019-02-27T00:51:12.920Z,35.55
2019-02-27T00:53:42.507Z,34.53
2019-02-27T00:56:12.816Z,36.35
2019-02-27T00:58:42.498Z,36.60
2019-02-27T01:01:12.595Z,37.35
2019-02-27T01:03:42.919Z,33.50
2019-02-27T01:06:14.642Z,34.25
2019-02-27T01:08:43.982Z,36.28
2019-02-27T01:11:13.498Z,34.67
2019-02-27T01:13:44.581Z,36.88
2019-02-27T01:16:17.007Z,33.67
2019-02-27T01:18:45.384Z,35.90
2019-02-27T01:21:19.233Z,39.23
2019-02-27T01:23:46.033Z,34.33
2019-02-27T01:26:15.483Z,34.85
2019-02-27T01:28:45.586Z,35.85
2019-02-27T01:31:15.223Z,34.27
2019-02-27T01:33:44.677Z,36.65
2019-02-27T01:36:14.131Z,32.60
2019-02-27T01:38:43.581Z,36.85
2019-02-27T01:41:12.997Z,35.10
2019-02-27T01:43:42.437Z,32.85
2019-02-27T01:46:11.840Z,34.27
2019-02-27T01:48:43.581Z,35.35
2019-02-27T01:51:12.455Z,35.27
2019-02-27T01:53:41.991Z,37.50
2019-02-27T01:56:11.514Z,37.47
2019-02-27T01:58:43.633Z,40.60
2019-02-27T02:01:12.156Z,41.35
2019-02-27T02:03:41.851Z,37.88
2019-02-27T02:06:11.317Z,36.48
2019-02-27T02:08:40.859Z,39.80
2019-02-27T02:11:10.493Z,39.07
2019-02-27T02:13:42.985Z,38.38
2019-02-27T02:16:21.197Z,36.57
2019-02-27T02:19:21.419Z,38.63
2019-02-27T02:21:56.347Z,45.33
2019-02-27T02:24:40.720Z,42.88
2019-02-27T02:27:35.591Z,38.55
2019-02-27T02:30:16.851Z,35.55
2019-02-27T02:33:04.352Z,38.00
2019-02-27T02:36:05.341Z,36.17
2019-02-27T02:38:43.742Z,35.40
2019-02-27T02:41:16.258Z,37.05
2019-02-27T02:43:54.672Z,34.75
2019-02-27T02:46:48.400Z,36.73
2019-02-27T02:49:26.783Z,34.33
2019-02-27T02:52:17.003Z,37.85
2019-02-27T02:54:52.248Z,33.35
2019-02-27T02:57:35.947Z,34.55
2019-02-27T03:00:13.412Z,34.05
2019-02-27T03:03:02.548Z,35.25
2019-02-27T03:06:09.457Z,33.53
2019-02-27T03:09:00.290Z,37.20
2019-02-27T03:11:54.240Z,34.98
2019-02-27T03:14:39.687Z,34.55
2019-02-27T03:17:32.622Z,34.05
2019-02-27T03:20:36.725Z,34.73
2019-02-27T03:23:15.594Z,34.55
2019-02-27T03:25:51.868Z,36.95
2019-02-27T03:28:40.666Z,36.63
2019-02-27T03:31:18.935Z,34.92
2019-02-27T03:34:09.323Z,36.53
2019-02-27T03:36:59.370Z,34.83
2019-02-27T03:39:51.284Z,35.98
2019-02-27T03:42:34.211Z,38.58
2019-02-27T03:45:33.233Z,37.35
2019-02-27T03:48:08.588Z,38.48
2019-02-27T03:50:49.912Z,33.45
2019-02-27T03:53:39.268Z,34.85
2019-02-27T03:56:28.423Z,32.74
2019-02-27T03:59:16.185Z,36.50
2019-02-27T04:01:51.470Z,34.73
2019-02-27T04:04:49.706Z,35.28
2019-02-27T04:07:31.477Z,33.40
2019-02-27T04:09:59.957Z,40.43
2019-02-27T04:12:29.421Z,44.38
2019-02-27T04:14:58.942Z,39.90
2019-02-27T04:17:30.130Z,37.60
2019-02-27T04:19:59.536Z,35.25
2019-02-27T04:22:29.000Z,34.03
2019-02-27T04:24:58.407Z,38.23
2019-02-27T04:27:27.865Z,36.80
2019-02-27T04:29:57.395Z,36.93
2019-02-27T04:32:26.861Z,37.95
2019-02-27T04:34:56.215Z,36.48
2019-02-27T04:37:25.670Z,35.30
2019-02-27T04:39:55.096Z,38.70
2019-02-27T04:42:25.658Z,38.30
2019-02-27T04:44:55.698Z,37.93
2019-02-27T04:47:28.829Z,40.12
2019-02-27T04:49:56.264Z,35.65
2019-02-27T04:52:25.686Z,35.10
2019-02-27T04:54:55.158Z,33.60
2019-02-27T04:57:24.571Z,34.67
2019-02-27T04:59:53.985Z,36.40
2019-02-27T05:02:23.485Z,34.43
2019-02-27T05:04:52.971Z,36.20
2019-02-27T05:07:22.446Z,36.23
2019-02-27T05:09:52.055Z,36.53
2019-02-27T05:12:21.489Z,35.25
2019-02-27T05:14:51.409Z,33.20
2019-02-27T05:17:21.442Z,34.08
2019-02-27T05:19:52.078Z,34.60
2019-02-27T05:22:26.166Z,33.90
2019-02-27T05:24:53.130Z,38.48
2019-02-27T05:27:22.552Z,32.93
2019-02-27T05:29:52.078Z,38.50
2019-02-27T05:32:21.537Z,41.25
2019-02-27T05:34:51.051Z,40.17
2019-02-27T05:37:20.489Z,36.45
2019-02-27T05:39:51.239Z,37.78
2019-02-27T05:42:21.154Z,39.78
2019-02-27T05:44:55.530Z,40.83
2019-02-27T05:47:22.249Z,35.60
2019-02-27T05:49:51.678Z,37.30
2019-02-27T05:52:21.131Z,44.20
2019-02-27T05:54:50.595Z,39.92
2019-02-27T05:57:23.297Z,40.67
2019-02-27T05:59:52.823Z,43.73
2019-02-27T06:02:23.414Z,37.03
2019-02-27T06:04:52.882Z,38.17
2019-02-27T06:07:22.299Z,34.73
2019-02-27T06:09:51.732Z,39.90
2019-02-27T06:12:21.178Z,34.27
2019-02-27T06:14:54.790Z,37.90
2019-02-27T06:17:21.879Z,46.42
2019-02-27T06:19:51.330Z,36.58
2019-02-27T06:22:20.807Z,37.65
2019-02-27T06:24:50.249Z,36.73
2019-02-27T06:27:19.660Z,38.10
2019-02-27T06:29:49.123Z,33.60
2019-02-27T06:32:18.555Z,47.40
2019-02-27T06:34:48.026Z,36.08
2019-02-27T06:37:17.433Z,38.83
2019-02-27T06:39:46.932Z,36.93
2019-02-27T06:42:16.417Z,34.70
2019-02-27T06:44:45.867Z,36.63
2019-02-27T06:47:15.277Z,37.80
2019-02-27T06:49:44.765Z,36.25
2019-02-27T06:52:14.189Z,37.75
2019-02-27T06:54:43.609Z,42.62
2019-02-27T06:57:13.121Z,41.10
2019-02-27T06:59:42.669Z,38.53
2019-02-27T07:02:12.113Z,36.60
2019-02-27T07:04:41.592Z,39.40
2019-02-27T07:07:11.003Z,34.38
2019-02-27T07:09:40.468Z,35.48
2019-02-27T07:12:09.927Z,53.35
2019-02-27T07:14:39.933Z,48.28
2019-02-27T07:17:09.378Z,46.10
2019-02-27T07:19:38.895Z,35.78
2019-02-27T07:22:08.881Z,31.75
2019-02-27T07:24:39.514Z,34.78
2019-02-27T07:27:08.948Z,36.70
2019-02-27T07:29:38.424Z,27.77
2019-02-27T07:32:07.852Z,30.68
2019-02-27T07:34:37.319Z,38.30
2019-02-27T07:37:06.716Z,30.80
2019-02-27T07:39:36.199Z,30.20
2019-02-27T07:42:05.709Z,32.15
2019-02-27T07:44:35.897Z,34.35
2019-02-27T07:47:05.371Z,31.37
2019-02-27T07:49:35.898Z,33.25
2019-02-27T07:52:05.327Z,32.53
2019-02-27T07:54:34.807Z,29.67
2019-02-27T07:57:04.493Z,30.50
2019-02-27T07:59:37.920Z,29.42
2019-02-27T08:02:05.128Z,30.68
2019-02-27T08:04:34.641Z,28.23
2019-02-27T08:07:04.752Z,29.44
2019-02-27T08:09:34.229Z,29.32
2019-02-27T08:12:04.340Z,25.92
2019-02-27T08:14:36.781Z,28.17
2019-02-27T08:17:17.027Z,29.48
2019-02-27T08:19:36.201Z,27.32
2019-02-27T08:22:05.637Z,32.33
2019-02-27T08:24:35.137Z,25.68
2019-02-27T08:27:07.108Z,26.68
2019-02-27T08:29:37.358Z,25.17
2019-02-27T08:32:06.843Z,30.62
2019-02-27T08:34:36.343Z,27.55
2019-02-27T08:37:05.775Z,27.60
2019-02-27T08:39:35.260Z,26.93
2019-02-27T08:42:04.679Z,26.35
2019-02-27T08:44:35.237Z,31.12
2019-02-27T08:47:07.776Z,30.80
2019-02-27T08:49:36.475Z,29.95
2019-02-27T08:52:06.096Z,30.70
2019-02-27T08:54:35.586Z,30.77
2019-02-27T08:57:05.180Z,28.52
2019-02-27T08:59:37.022Z,28.23
2019-02-27T09:02:06.754Z,28.77
2019-02-27T09:04:36.225Z,26.87
2019-02-27T09:07:05.678Z,27.87
2019-02-27T09:09:36.234Z,30.43
2019-02-27T09:12:05.760Z,31.42
2019-02-27T09:14:35.240Z,31.50
2019-02-27T09:17:04.875Z,32.80
2019-02-27T09:19:34.323Z,34.20
2019-02-27T09:22:04.422Z,35.32
2019-02-27T09:24:33.881Z,29.87
2019-02-27T09:27:03.354Z,34.15
2019-02-27T09:29:32.778Z,36.10
2019-02-27T09:32:02.272Z,31.45
2019-02-27T09:34:31.786Z,35.92
2019-02-27T09:37:01.327Z,35.52
2019-02-27T09:39:31.901Z,32.42
2019-02-27T09:42:01.603Z,35.80
2019-02-27T09:44:36.111Z,30.93
2019-02-27T09:47:04.501Z,37.58
2019-02-27T09:49:34.918Z,34.03
2019-02-27T09:52:04.655Z,35.83
2019-02-27T09:54:34.184Z,37.48
2019-02-27T09:57:04.608Z,36.15
2019-02-27T09:59:34.055Z,35.52
2019-02-27T10:02:06.338Z,33.64
2019-02-27T10:04:36.156Z,39.88
2019-02-27T10:07:06.699Z,32.88
2019-02-27T10:09:36.226Z,32.83
2019-02-27T10:12:05.844Z,33.18
2019-02-27T10:14:35.490Z,27.20
2019-02-27T10:17:06.820Z,24.98
2019-02-27T10:19:36.252Z,28.12
2019-02-27T10:22:07.074Z,30.23
2019-02-27T10:24:37.533Z,24.45
2019-02-27T10:27:07.200Z,25.75
2019-02-27T10:29:36.705Z,23.18
2019-02-27T10:32:06.187Z,23.20
2019-02-27T10:34:36.293Z,23.92
2019-02-27T10:37:05.927Z,23.52
2019-02-27T10:39:37.576Z,23.50
2019-02-27T10:42:07.228Z,25.32
2019-02-27T10:44:36.668Z,23.67
2019-02-27T10:47:06.159Z,20.30
2019-02-27T10:49:35.834Z,23.00
2019-02-27T10:52:05.364Z,20.80
2019-02-27T10:54:37.077Z,33.67
2019-02-27T10:57:06.917Z,25.85
2019-02-27T10:59:36.465Z,38.13
2019-02-27T11:02:06.032Z,24.82
2019-02-27T11:04:36.351Z,34.18
2019-02-27T11:07:06.754Z,21.20
2019-02-27T11:09:40.823Z,19.00
2019-02-27T11:12:07.465Z,49.33
2019-02-27T11:14:36.904Z,22.52
2019-02-27T11:17:06.376Z,18.70
2019-02-27T11:19:35.830Z,17.85
2019-02-27T11:22:05.340Z,15.77
2019-02-27T11:24:34.853Z,22.42
2019-02-27T11:27:06.078Z,17.17
2019-02-27T11:29:35.721Z,14.43
2019-02-27T11:32:05.276Z,15.53
2019-02-27T11:34:34.809Z,14.25
2019-02-27T11:37:04.426Z,13.40
2019-02-27T11:39:33.872Z,14.00
2019-02-27T11:42:03.596Z,12.40
2019-02-27T11:44:33.091Z,12.47
2019-02-27T11:47:02.587Z,12.95
2019-02-27T11:49:33.105Z,12.60
2019-02-27T11:52:02.576Z,15.10
2019-02-27T11:54:32.011Z,12.82
2019-02-27T11:57:01.481Z,11.08
2019-02-27T11:59:30.915Z,11.50
2019-02-27T12:02:00.410Z,16.37
2019-02-27T12:04:29.851Z,13.88
2019-02-27T12:06:59.340Z,10.93
2019-02-27T12:09:28.787Z,12.60
2019-02-27T12:11:58.225Z,12.20
2019-02-27T12:14:27.719Z,10.38
2019-02-27T12:16:57.275Z,11.78
2019-02-27T12:19:26.701Z,12.07
2019-02-27T12:21:59.531Z,10.58
2019-02-27T12:24:27.529Z,10.98
2019-02-27T12:26:56.960Z,22.00
2019-02-27T12:29:27.240Z,18.23
2019-02-27T12:31:56.862Z,15.23
2019-02-27T12:34:27.374Z,11.77
2019-02-27T12:36:56.851Z,11.73
2019-02-27T12:39:26.277Z,10.93
2019-02-27T12:41:55.753Z,11.95
2019-02-27T12:44:25.279Z,13.13
2019-02-27T12:46:54.757Z,11.78
2019-02-27T12:49:24.181Z,12.73
2019-02-27T12:51:53.661Z,13.00
2019-02-27T12:54:23.118Z,15.25
2019-02-27T12:56:52.620Z,9.80
2019-02-27T12:59:22.104Z,11.38
2019-02-27T13:01:51.863Z,11.63
2019-02-27T13:04:21.490Z,12.10
2019-02-27T13:06:51.019Z,9.83
2019-02-27T13:09:20.687Z,18.32
2019-02-27T13:11:50.190Z,11.50
2019-02-27T13:14:19.637Z,10.75
2019-02-27T13:16:49.529Z,9.18
2019-02-27T13:19:19.690Z,10.13
2019-02-27T13:21:49.162Z,9.78
2019-02-27T13:24:18.669Z,10.50
2019-02-27T13:26:48.160Z,10.70
2019-02-27T13:29:20.617Z,10.38
2019-02-27T13:31:51.460Z,11.03
2019-02-27T13:34:20.031Z,10.05
2019-02-27T13:36:49.590Z,11.35
2019-02-27T13:39:19.060Z,10.87
2019-02-27T13:41:48.508Z,11.73
2019-02-27T13:44:18.010Z,10.88
2019-02-27T13:46:47.485Z,10.88
2019-02-27T13:49:16.943Z,10.25
2019-02-27T13:51:46.423Z,14.73
2019-02-27T13:54:15.887Z,17.65
2019-02-27T13:56:45.389Z,10.70
2019-02-27T13:59:14.870Z,12.10
2019-02-27T14:01:44.309Z,10.93
2019-02-27T14:04:13.825Z,11.83
2019-02-27T14:06:47.318Z,9.65
2019-02-27T14:09:14.550Z,10.80
2019-02-27T14:11:44.056Z,10.65
2019-02-27T14:14:15.121Z,12.27
2019-02-27T14:16:44.749Z,9.55
2019-02-27T14:19:14.232Z,9.95
2019-02-27T14:21:43.708Z,9.40
2019-02-27T14:24:13.367Z,11.08
2019-02-27T14:26:42.849Z,11.08
2019-02-27T14:29:12.297Z,13.83
2019-02-27T14:31:43.425Z,11.48
2019-02-27T14:34:13.563Z,10.87
2019-02-27T14:36:44.020Z,12.60
2019-02-27T14:39:14.998Z,9.23
2019-02-27T14:41:47.960Z,10.10
2019-02-27T14:44:15.781Z,10.03
2019-02-27T14:46:45.769Z,9.60
2019-02-27T14:49:15.267Z,10.32
2019-02-27T14:51:44.745Z,10.32
2019-02-27T14:54:14.197Z,11.30
2019-02-27T14:56:43.787Z,9.58
2019-02-27T14:59:13.242Z,10.55
2019-02-27T15:01:42.743Z,9.78
2019-02-27T15:04:12.273Z,18.97
2019-02-27T15:06:41.714Z,10.60
2019-02-27T15:09:11.604Z,10.28
2019-02-27T15:11:41.279Z,10.03
2019-02-27T15:14:10.798Z,9.75
2019-02-27T15:16:40.278Z,11.80
2019-02-27T15:19:10.201Z,10.32
2019-02-27T15:21:39.642Z,10.30
2019-02-27T15:24:10.505Z,12.22
2019-02-27T15:26:45.205Z,10.98
2019-02-27T15:29:11.256Z,10.72
2019-02-27T15:31:40.770Z,12.28
2019-02-27T15:34:12.243Z,17.20
2019-02-27T15:36:41.569Z,16.25
2019-02-27T15:39:11.019Z,12.63
2019-02-27T15:41:42.132Z,11.53
2019-02-27T15:44:11.606Z,16.62
2019-02-27T15:46:44.876Z,19.10
2019-02-27T15:49:15.126Z,14.63
2019-02-27T15:51:45.598Z,14.18
2019-02-27T15:54:15.115Z,18.80
2019-02-27T15:56:45.496Z,17.23
2019-02-27T15:59:15.240Z,14.00
2019-02-27T16:01:44.816Z,13.48
2019-02-27T16:04:17.568Z,11.83
2019-02-27T16:06:46.670Z,13.10
2019-02-27T16:09:16.773Z,14.78
2019-02-27T16:11:48.113Z,15.50
2019-02-27T16:14:17.442Z,12.65
2019-02-27T16:16:47.653Z,14.98
2019-02-27T16:19:17.050Z,15.30
2019-02-27T16:21:46.641Z,14.95
2019-02-27T16:24:16.150Z,14.83
2019-02-27T16:26:45.732Z,14.68
2019-02-27T16:29:15.226Z,17.30
2019-02-27T16:31:45.853Z,14.30
2019-02-27T16:34:15.396Z,14.30
2019-02-27T16:36:46.905Z,16.02
2019-02-27T16:39:16.231Z,15.23
2019-02-27T16:41:47.647Z,15.50
2019-02-27T16:44:21.422Z,19.37
2019-02-27T16:46:48.414Z,17.05
2019-02-27T16:49:18.292Z,16.70
2019-02-27T16:51:48.014Z,20.35
2019-02-27T16:54:19.181Z,20.57
2019-02-27T16:56:50.905Z,18.80
2019-02-27T16:59:20.236Z,20.05
2019-02-27T17:01:49.893Z,16.73
2019-02-27T17:04:19.366Z,15.93
2019-02-27T17:06:49.128Z,17.70
2019-02-27T17:09:20.164Z,22.17
2019-02-27T17:11:49.756Z,18.73
2019-02-27T17:14:21.168Z,20.67
2019-02-27T17:16:51.830Z,19.90
2019-02-27T17:19:21.301Z,21.30
2019-02-27T17:21:50.939Z,22.20
2019-02-27T17:24:21.801Z,17.37
2019-02-27T17:26:51.822Z,22.32
2019-02-27T17:29:22.825Z,19.25
2019-02-27T17:31:55.622Z,22.58
2019-02-27T17:34:24.312Z,19.95
2019-02-27T17:36:53.925Z,19.87
2019-02-27T17:39:27.324Z,19.57
2019-02-27T17:41:54.792Z,19.25
2019-02-27T17:44:24.382Z,21.65
2019-02-27T17:46:54.822Z,22.40
2019-02-27T17:49:25.438Z,21.10
2019-02-27T17:51:56.901Z,24.40
2019-02-27T17:54:26.375Z,22.30
2019-02-27T17:56:56.125Z,18.73
2019-02-27T17:59:25.589Z,22.20
2019-02-27T18:01:58.539Z,22.52
2019-02-27T18:04:27.473Z,25.27
2019-02-27T18:07:00.432Z,24.02
2019-02-27T18:09:28.803Z,26.00
2019-02-27T18:11:58.391Z,27.90
2019-02-27T18:14:27.981Z,29.92
2019-02-27T18:16:59.272Z,32.53
2019-02-27T18:19:29.237Z,29.35
2019-02-27T18:21:58.876Z,31.17
2019-02-27T18:24:33.343Z,27.03
2019-02-27T18:27:01.822Z,26.35
2019-02-27T18:29:31.451Z,25.12
2019-02-27T18:32:06.154Z,29.48
2019-02-27T18:34:32.709Z,29.57
2019-02-27T18:37:02.361Z,27.42
2019-02-27T18:39:36.323Z,26.57
2019-02-27T18:42:03.132Z,27.55
2019-02-27T18:44:32.774Z,26.70
2019-02-27T18:47:02.493Z,26.95
2019-02-27T18:49:32.142Z,31.12
2019-02-27T18:52:06.384Z,26.20
2019-02-27T18:54:33.129Z,27.02
2019-02-27T18:57:02.712Z,27.02
2019-02-27T18:59:32.197Z,24.23
2019-02-27T19:02:01.894Z,35.75
2019-02-27T19:04:35.034Z,29.27
2019-02-27T19:07:02.726Z,23.85
2019-02-27T19:09:33.207Z,25.92
2019-02-27T19:12:03.164Z,25.02
2019-02-27T19:14:36.703Z,26.17
2019-02-27T19:17:05.291Z,27.93
2019-02-27T19:19:35.008Z,22.95
2019-02-27T19:22:07.616Z,23.07
2019-02-27T19:24:36.133Z,25.72
2019-02-27T19:27:05.807Z,25.02
2019-02-27T19:29:35.329Z,26.60
2019-02-27T19:32:06.065Z,24.40
2019-02-27T19:34:35.482Z,25.45
2019-02-27T19:37:05.971Z,26.85
2019-02-27T19:39:36.808Z,26.23
2019-02-27T19:42:06.483Z,26.02
2019-02-27T19:44:35.932Z,22.75
2019-02-27T19:47:05.565Z,23.20
2019-02-27T19:49:36.668Z,25.02
2019-02-27T19:52:06.337Z,25.37
2019-02-27T19:54:36.039Z,22.80
2019-02-27T19:57:08.470Z,34.00
2019-02-27T19:59:37.090Z,22.55
2019-02-27T20:02:06.916Z,21.42
2019-02-27T20:04:36.484Z,18.85
2019-02-27T20:07:06.135Z,23.40
2019-02-27T20:09:35.633Z,22.98
2019-02-27T20:12:05.623Z,23.60
2019-02-27T20:14:36.640Z,25.20
2019-02-27T20:17:06.664Z,22.82
2019-02-27T20:19:36.412Z,26.15
2019-02-27T20:22:06.107Z,26.12
2019-02-27T20:24:35.749Z,24.37
2019-02-27T20:27:05.373Z,22.60
2019-02-27T20:29:39.247Z,20.40
2019-02-27T20:32:06.411Z,23.02
2019-02-27T20:34:36.055Z,27.62
2019-02-27T20:37:06.409Z,18.23
2019-02-27T20:39:37.074Z,20.90
2019-02-27T20:42:06.822Z,23.42
2019-02-27T20:44:37.348Z,22.37
2019-02-27T20:47:07.496Z,24.25
2019-02-27T20:49:37.145Z,24.70
2019-02-27T20:52:06.586Z,22.87
2019-02-27T20:54:36.171Z,28.87
2019-02-27T20:57:08.101Z,23.85
2019-02-27T20:59:36.922Z,22.60
2019-02-27T21:02:06.752Z,24.67
2019-02-27T21:04:39.089Z,22.30
2019-02-27T21:07:08.578Z,21.73
2019-02-27T21:09:38.029Z,20.82
2019-02-27T21:12:07.593Z,23.67
2019-02-27T21:14:37.175Z,23.18
2019-02-27T21:17:06.742Z,24.98
2019-02-27T21:19:37.217Z,24.67
2019-02-27T21:22:07.659Z,20.77
2019-02-27T21:24:40.491Z,23.80
2019-02-27T21:27:08.838Z,23.04
2019-02-27T21:29:40.226Z,20.97
2019-02-27T21:32:09.709Z,19.85
2019-02-27T21:34:39.240Z,24.95
2019-02-27T21:37:10.119Z,20.84
2019-02-27T21:39:40.239Z,22.95
2019-02-27T21:42:09.918Z,22.17
2019-02-27T21:44:39.589Z,21.35
2019-02-27T21:47:09.064Z,25.42
2019-02-27T21:49:38.619Z,21.10
2019-02-27T21:52:09.267Z,22.62
2019-02-27T21:54:39.493Z,22.22
2019-02-27T21:57:09.082Z,21.70
2019-02-27T21:59:39.756Z,21.55
2019-02-27T22:02:10.069Z,20.48
2019-02-27T22:04:41.281Z,18.87
2019-02-27T22:07:10.791Z,20.30
2019-02-27T22:09:40.388Z,19.63
2019-02-27T22:12:09.847Z,17.57
2019-02-27T22:14:39.330Z,17.98
2019-02-27T22:17:08.911Z,20.38
2019-02-27T22:19:38.459Z,18.37
2019-02-27T22:22:08.759Z,20.30
2019-02-27T22:24:39.292Z,18.60
2019-02-27T22:27:09.225Z,16.00
2019-02-27T22:29:40.036Z,16.40
2019-02-27T22:32:12.040Z,17.55
2019-02-27T22:34:40.995Z,16.20
2019-02-27T22:37:10.478Z,24.72
2019-02-27T22:39:42.590Z,18.75
2019-02-27T22:42:14.445Z,16.50
2019-02-27T22:44:43.230Z,14.43
2019-02-27T22:47:12.846Z,13.77
2019-02-27T22:49:42.292Z,16.33
2019-02-27T22:52:11.841Z,15.88
2019-02-27T22:54:41.340Z,14.53
2019-02-27T22:57:10.764Z,14.15
2019-02-27T22:59:40.260Z,14.38
2019-02-27T23:02:10.297Z,15.60
2019-02-27T23:04:39.972Z,15.40
2019-02-27T23:07:09.586Z,14.23
2019-02-27T23:09:39.143Z,17.67
2019-02-27T23:12:09.327Z,14.95
2019-02-27T23:14:38.882Z,15.83
2019-02-27T23:17:08.638Z,16.93
2019-02-27T23:19:38.168Z,18.45
2019-02-27T23:22:08.976Z,17.60
2019-02-27T23:24:38.452Z,15.38
2019-02-27T23:27:07.961Z,16.70
2019-02-27T23:29:40.547Z,16.57
2019-02-27T23:32:11.313Z,18.48
2019-02-27T23:34:41.740Z,16.60
2019-02-27T23:37:11.864Z,16.00
2019-02-27T23:39:42.769Z,13.88
2019-02-27T23:42:12.485Z,15.35
2019-02-27T23:44:42.013Z,15.18
2019-02-27T23:47:11.450Z,17.43
2019-02-27T23:49:42.015Z,15.83
2019-02-27T23:52:12.536Z,19.48
2019-02-27T23:54:42.032Z,16.30
2019-02-27T23:57:11.512Z,16.27
2019-02-27T23:59:40.992Z,14.90
